createdAt,value
2019-03-22T00:00:01.350Z,9.6
2019-03-22T00:05:02.134Z,9.6
2019-03-22T00:10:01.757Z,9.6
2019-03-22T00:15:01.631Z,9.6
2019-03-22T00:20:01.703Z,9.7
2019-03-22T00:25:01.685Z,9.7
2019-03-22T00:30:01.620Z,9.7
2019-03-22T00:35:01.196Z,9.7
2019-03-22T00:40:01.516Z,9.7
2019-03-22T00:45:01.349Z,9.6
2019-03-22T00:50:01.357Z,9.6
2019-03-22T00:55:01.441Z,9.6
2019-03-22T01:00:02.518Z,9.6
2019-03-22T01:05:02.107Z,9.6
2019-03-22T01:10:02.083Z,9.6
2019-03-22T01:15:01.316Z,9.6
2019-03-22T01:20:02.180Z,9.6
2019-03-22T01:25:01.488Z,9.6
2019-03-22T01:30:01.946Z,9.7
2019-03-22T01:35:01.631Z,9.7
2019-03-22T01:40:02.303Z,9.6
2019-03-22T01:45:01.894Z,9.6
2019-03-22T01:50:02.021Z,9.6
2019-03-22T01:55:02.020Z,9.6
2019-03-22T02:00:02.426Z,9.6
2019-03-22T02:05:02.108Z,9.6
2019-03-22T02:10:01.900Z,9.6
2019-03-22T02:15:01.435Z,9.6
2019-03-22T02:20:01.458Z,9.5
2019-03-22T02:25:01.189Z,9.6
2019-03-22T02:30:02.153Z,9.6
2019-03-22T02:35:01.729Z,9.6
2019-03-22T02:40:01.865Z,9.6
2019-03-22T02:45:01.593Z,9.5
2019-03-22T02:50:11.568Z,9.4
2019-03-22T02:55:02.162Z,9.4
2019-03-22T03:00:01.519Z,9.5
2019-03-22T03:05:02.058Z,9.5
2019-03-22T03:10:01.256Z,9.5
2019-03-22T03:15:02.088Z,9.5
2019-03-22T03:20:01.835Z,9.5
2019-03-22T03:25:02.010Z,9.5
2019-03-22T03:30:01.687Z,9.5
2019-03-22T03:35:01.847Z,9.5
2019-03-22T03:40:02.165Z,9.6
2019-03-22T03:45:01.642Z,9.6
2019-03-22T03:50:01.854Z,9.6
2019-03-22T03:55:01.196Z,9.6
2019-03-22T04:00:01.644Z,9.6
2019-03-22T04:05:01.817Z,9.6
2019-03-22T04:10:01.222Z,9.6
2019-03-22T04:15:01.357Z,9.5
2019-03-22T04:20:01.413Z,9.5
2019-03-22T04:25:01.746Z,9.4
2019-03-22T04:30:02.026Z,9.5
2019-03-22T04:35:02.286Z,9.4
2019-03-22T04:40:02.152Z,9.5
2019-03-22T04:45:01.249Z,9.5
2019-03-22T04:50:01.354Z,9.5
2019-03-22T04:55:01.674Z,9.5
2019-03-22T05:00:02.123Z,9.5
2019-03-22T05:05:02.113Z,9.5
2019-03-22T05:10:01.827Z,9.4
2019-03-22T05:15:02.135Z,9.5
2019-03-22T05:20:02.216Z,9.5
2019-03-22T05:25:01.183Z,9.4
2019-03-22T05:30:01.276Z,9.4
2019-03-22T05:35:02.391Z,9.4
2019-03-22T05:40:01.437Z,9.4
2019-03-22T05:45:01.698Z,9.4
2019-03-22T05:50:01.859Z,9.4
2019-03-22T05:55:01.934Z,9.4
2019-03-22T06:00:02.199Z,9.5
2019-03-22T06:05:01.154Z,9.4
2019-03-22T06:10:01.968Z,9.4
2019-03-22T06:15:01.422Z,9.4
2019-03-22T06:20:01.293Z,9.4
2019-03-22T06:25:01.743Z,9.4
2019-03-22T06:30:01.932Z,9.4
2019-03-22T06:35:01.780Z,9.5
2019-03-22T06:40:02.591Z,9.4
2019-03-22T06:45:01.717Z,9.5
2019-03-22T06:50:01.474Z,9.5
2019-03-22T06:55:02.010Z,9.5
2019-03-22T07:00:06.653Z,9.6
2019-03-22T07:05:01.688Z,9.5
2019-03-22T07:10:01.852Z,9.6
2019-03-22T07:15:01.359Z,9.5
2019-03-22T07:20:02.091Z,9.3
2019-03-22T07:25:01.238Z,8.9
2019-03-22T07:30:01.669Z,8.8
2019-03-22T07:35:01.914Z,8.8
2019-03-22T07:40:02.404Z,9
2019-03-22T07:45:01.369Z,9
2019-03-22T07:50:01.981Z,9.1
2019-03-22T07:55:02.075Z,9.3
2019-03-22T08:00:01.671Z,9.3
2019-03-22T08:05:01.485Z,9.4
2019-03-22T08:10:02.205Z,9.3
2019-03-22T08:15:01.367Z,9.3
2019-03-22T08:20:02.230Z,9.3
2019-03-22T08:25:01.775Z,9.4
2019-03-22T08:30:01.355Z,9.4
2019-03-22T08:35:02.360Z,9.5
2019-03-22T08:40:02.183Z,9.5
2019-03-22T08:45:01.483Z,9.4
2019-03-22T08:50:01.432Z,9.5
2019-03-22T08:55:02.060Z,9.4
2019-03-22T09:00:02.100Z,9.5
2019-03-22T09:05:01.998Z,9.5
2019-03-22T09:10:01.600Z,9.5
2019-03-22T09:15:01.431Z,9.5
2019-03-22T09:20:01.850Z,9.5
2019-03-22T09:25:01.404Z,9.6
2019-03-22T09:30:02.153Z,9.5
2019-03-22T09:35:01.861Z,9.6
2019-03-22T09:40:02.034Z,9.6
2019-03-22T09:45:01.535Z,9.6
2019-03-22T09:50:01.603Z,9.7
2019-03-22T09:55:12.411Z,9.7
2019-03-22T10:00:01.932Z,9.8
2019-03-22T10:05:01.339Z,9.9
2019-03-22T10:10:02.196Z,10
2019-03-22T10:15:02.162Z,10
2019-03-22T10:20:01.628Z,10
2019-03-22T10:25:01.510Z,10
2019-03-22T10:30:01.908Z,10
2019-03-22T10:35:01.666Z,10
2019-03-22T10:40:01.872Z,10.1
2019-03-22T10:45:01.813Z,10.1
2019-03-22T10:50:01.712Z,10.1
2019-03-22T10:55:13.860Z,10.2
2019-03-22T11:00:01.251Z,10.2
2019-03-22T11:05:02.020Z,10.2
2019-03-22T11:10:02.128Z,10.3
2019-03-22T11:15:02.069Z,10.3
2019-03-22T11:20:01.831Z,10.4
2019-03-22T11:25:01.558Z,10.4
2019-03-22T11:30:02.142Z,10.5
2019-03-22T11:35:01.698Z,10.5
2019-03-22T11:40:01.716Z,10.5
2019-03-22T11:45:02.040Z,10.6
2019-03-22T11:50:02.358Z,10.7
2019-03-22T11:55:01.586Z,10.8
2019-03-22T12:00:01.876Z,10.8
2019-03-22T12:05:01.898Z,10.9
2019-03-22T12:10:01.411Z,10.9
2019-03-22T12:15:02.041Z,11
2019-03-22T12:20:01.540Z,11.1
2019-03-22T12:25:02.521Z,11.2
2019-03-22T12:30:02.257Z,11.2
2019-03-22T12:35:01.267Z,11.2
2019-03-22T12:40:02.378Z,11.4
2019-03-22T12:45:01.253Z,11.5
2019-03-22T12:50:01.557Z,11.6
2019-03-22T12:55:01.821Z,11.7
2019-03-22T13:00:01.852Z,11.8
2019-03-22T13:05:01.568Z,12
2019-03-22T13:10:01.546Z,12.2
2019-03-22T13:15:01.679Z,12.2
2019-03-22T13:20:01.410Z,12.4
2019-03-22T13:25:01.997Z,12.6
2019-03-22T13:30:01.622Z,12.8
2019-03-22T13:35:01.444Z,12.9
2019-03-22T13:40:01.266Z,13.1
2019-03-22T13:45:01.840Z,13.3
2019-03-22T13:50:01.507Z,13.4
2019-03-22T13:55:01.313Z,13.7
2019-03-22T14:00:02.099Z,14.2
2019-03-22T14:05:01.749Z,14.2
2019-03-22T14:10:01.820Z,14.5
2019-03-22T14:15:01.518Z,15
2019-03-22T14:20:10.680Z,15.2
2019-03-22T14:25:02.377Z,15.2
2019-03-22T14:30:01.726Z,15.3
2019-03-22T14:35:01.714Z,15.5
2019-03-22T14:40:02.084Z,15.8
2019-03-22T14:45:01.555Z,15.8
2019-03-22T14:50:02.148Z,16
2019-03-22T14:55:01.909Z,15.8
2019-03-22T15:00:01.457Z,15.4
2019-03-22T15:05:01.474Z,15.1
2019-03-22T15:10:01.477Z,14.9
2019-03-22T15:15:01.718Z,14.7
2019-03-22T15:20:02.039Z,14.5
2019-03-22T15:25:02.261Z,14.4
2019-03-22T15:30:01.163Z,14.2
2019-03-22T15:35:01.400Z,14.2
2019-03-22T15:40:01.258Z,14.2
2019-03-22T15:45:01.384Z,13.7
2019-03-22T15:50:02.010Z,13.5
2019-03-22T15:55:01.915Z,13.2
2019-03-22T16:00:01.431Z,13.1
2019-03-22T16:05:01.454Z,13
2019-03-22T16:10:01.683Z,12.9
2019-03-22T16:15:01.959Z,12.8
2019-03-22T16:20:01.308Z,12.7
2019-03-22T16:25:01.981Z,12.7
2019-03-22T16:30:01.479Z,12.6
2019-03-22T16:35:01.211Z,12.4
2019-03-22T16:40:01.596Z,12.3
2019-03-22T16:45:02.124Z,12.1
2019-03-22T16:50:01.764Z,11.6
2019-03-22T16:55:01.634Z,11.4
2019-03-22T17:00:02.353Z,11.1
2019-03-22T17:05:01.971Z,10.9
2019-03-22T17:10:01.953Z,10.7
2019-03-22T17:15:01.627Z,10.5
2019-03-22T17:20:02.338Z,10.4
2019-03-22T17:25:01.285Z,10.2
2019-03-22T17:30:01.587Z,10
2019-03-22T17:35:01.631Z,9.9
2019-03-22T17:40:01.677Z,9.8
2019-03-22T17:45:02.025Z,9.7
2019-03-22T17:50:01.859Z,9.6
2019-03-22T17:55:01.885Z,9.5
2019-03-22T18:00:01.779Z,9.4
2019-03-22T18:05:02.007Z,9.2
2019-03-22T18:10:01.934Z,9.1
2019-03-22T18:15:01.603Z,9.1
2019-03-22T18:20:01.920Z,9.1
2019-03-22T18:25:02.113Z,9.1
2019-03-22T18:30:02.150Z,8.9
2019-03-22T18:35:01.599Z,8.9
2019-03-22T18:40:02.450Z,8.8
2019-03-22T18:45:01.968Z,8.8
2019-03-22T18:50:01.724Z,8.7
2019-03-22T18:55:01.393Z,8.7
2019-03-22T19:00:02.179Z,8.7
2019-03-22T19:05:01.804Z,8.6
2019-03-22T19:10:02.201Z,8.5
2019-03-22T19:15:01.256Z,8.5
2019-03-22T19:20:02.187Z,8.4
2019-03-22T19:25:01.970Z,8.3
2019-03-22T19:30:01.804Z,8.2
2019-03-22T19:35:02.126Z,8.2
2019-03-22T19:40:01.644Z,8.2
2019-03-22T19:45:01.578Z,8.2
2019-03-22T19:50:01.983Z,8.2
2019-03-22T19:55:01.911Z,8.2
2019-03-22T20:00:01.425Z,8.1
2019-03-22T20:05:04.778Z,8
2019-03-22T20:10:01.675Z,8.1
2019-03-22T20:15:01.360Z,8
2019-03-22T20:20:01.787Z,8
2019-03-22T20:25:02.140Z,8.1
2019-03-22T20:30:01.991Z,7.9
2019-03-22T20:35:01.786Z,7.8
2019-03-22T20:40:01.220Z,7.7
2019-03-22T20:45:01.360Z,7.7
2019-03-22T20:50:02.276Z,7.8
2019-03-22T20:55:01.694Z,7.8
2019-03-22T21:00:02.045Z,7.8
2019-03-22T21:05:01.415Z,7.6
2019-03-22T21:10:01.295Z,7.6
2019-03-22T21:15:01.705Z,7.7
2019-03-22T21:20:01.275Z,7.8
2019-03-22T21:25:02.033Z,8.1
2019-03-22T21:30:01.540Z,8.4
2019-03-22T21:35:01.336Z,8.7
2019-03-22T21:40:01.914Z,8.8
2019-03-22T21:45:01.960Z,8.9
2019-03-22T21:50:01.654Z,9
2019-03-22T21:55:02.073Z,9.1
2019-03-22T22:00:01.958Z,9.2
2019-03-22T22:05:01.347Z,9.3
2019-03-22T22:10:01.924Z,9.4
2019-03-22T22:15:03.059Z,9.4
2019-03-22T22:20:01.377Z,9.5
2019-03-22T22:25:01.593Z,9.5
2019-03-22T22:30:01.577Z,9.5
2019-03-22T22:35:01.518Z,9.5
2019-03-22T22:40:02.055Z,9.6
2019-03-22T22:45:01.942Z,9.5
2019-03-22T22:50:02.232Z,9.5
2019-03-22T22:55:01.342Z,9.5
2019-03-22T23:00:01.287Z,9.5
2019-03-22T23:05:02.270Z,9.5
2019-03-22T23:10:01.540Z,9.4
2019-03-22T23:15:01.698Z,9.4
2019-03-22T23:20:01.400Z,9.3
2019-03-22T23:25:01.505Z,9.3
2019-03-22T23:30:02.203Z,9.3
2019-03-22T23:35:02.017Z,9.3
2019-03-22T23:40:01.774Z,9.3
2019-03-22T23:45:01.993Z,9.3
2019-03-22T23:50:02.077Z,9.3
2019-03-22T23:55:01.815Z,9.3
